createdAt,value
2018-04-15T00:01:10.475Z,64.90
2018-04-15T00:06:01.758Z,64.90
2018-04-15T00:10:52.651Z,64.90
2018-04-15T00:15:43.578Z,64.90
2018-04-15T00:20:34.476Z,64.80
2018-04-15T00:25:26.216Z,65.00
2018-04-15T00:30:17.148Z,65.00
2018-04-15T00:35:08.121Z,64.80
2018-04-15T00:39:59.050Z,64.90
2018-04-15T00:44:49.945Z,64.90
2018-04-15T00:49:40.857Z,64.90
2018-04-15T00:54:32.489Z,64.90
2018-04-15T00:59:23.410Z,64.90
2018-04-15T01:04:15.027Z,65.00
2018-04-15T01:09:05.980Z,65.00
2018-04-15T01:13:56.870Z,65.00
2018-04-15T01:18:47.748Z,65.00
2018-04-15T01:23:38.623Z,65.00
2018-04-15T01:28:29.510Z,65.00
2018-04-15T01:33:20.539Z,65.00
2018-04-15T01:38:11.430Z,65.00
2018-04-15T01:43:02.307Z,65.10
2018-04-15T01:47:53.200Z,65.10
2018-04-15T01:52:44.162Z,65.10
2018-04-15T01:57:35.193Z,65.10
2018-04-15T02:02:26.180Z,65.20
2018-04-15T02:07:17.801Z,65.20
2018-04-15T02:12:08.824Z,65.20
2018-04-15T02:17:00.444Z,65.30
2018-04-15T02:21:51.372Z,65.20
2018-04-15T02:26:42.253Z,65.30
2018-04-15T02:31:33.942Z,65.40
2018-04-15T02:36:24.828Z,65.30
2018-04-15T02:41:15.722Z,65.40
2018-04-15T02:46:06.607Z,65.40
2018-04-15T02:50:57.487Z,65.40
2018-04-15T02:55:48.376Z,65.30
2018-04-15T03:00:39.264Z,65.40
2018-04-15T03:05:30.139Z,65.40
2018-04-15T03:10:21.016Z,65.50
2018-04-15T03:15:11.906Z,65.50
2018-04-15T03:20:02.793Z,65.40
2018-04-15T03:24:53.773Z,65.50
2018-04-15T03:29:44.672Z,65.30
2018-04-15T03:34:36.322Z,65.50
2018-04-15T03:39:27.209Z,65.50
2018-04-15T03:44:18.114Z,65.60
2018-04-15T03:49:08.995Z,65.70
2018-04-15T03:53:59.882Z,65.60
2018-04-15T03:58:50.766Z,65.60
2018-04-15T04:03:41.735Z,65.70
2018-04-15T04:08:32.632Z,65.70
2018-04-15T04:13:23.583Z,65.70
2018-04-15T04:18:27.044Z,65.80
2018-04-15T04:28:49.775Z,65.90
2018-04-15T04:33:40.726Z,65.70
2018-04-15T04:38:31.617Z,65.70
2018-04-15T04:43:22.547Z,65.80
2018-04-15T04:48:13.437Z,65.90
2018-04-15T04:53:04.327Z,65.70
2018-04-15T04:57:55.221Z,65.70
2018-04-15T05:02:46.211Z,65.80
2018-04-15T05:07:37.867Z,65.80
2018-04-15T05:12:28.759Z,65.90
2018-04-15T05:17:20.383Z,66.30
2018-04-15T05:22:11.279Z,65.80
2018-04-15T05:27:02.207Z,66.00
2018-04-15T05:31:53.103Z,65.90
2018-04-15T05:36:44.011Z,66.00
2018-04-15T05:41:34.907Z,65.90
2018-04-15T05:46:26.601Z,66.10
2018-04-15T05:51:18.223Z,66.20
2018-04-15T05:56:09.146Z,66.20
2018-04-15T06:01:00.781Z,66.40
2018-04-15T06:05:51.700Z,66.40
2018-04-15T06:10:42.590Z,66.50
2018-04-15T06:15:33.494Z,66.30
2018-04-15T06:20:25.115Z,66.20
2018-04-15T06:25:16.002Z,66.20
2018-04-15T06:30:06.905Z,66.30
2018-04-15T06:34:57.783Z,66.30
2018-04-15T06:39:48.680Z,65.30
2018-04-15T06:44:40.319Z,65.30
2018-04-15T06:49:31.229Z,65.30
2018-04-15T06:54:22.855Z,65.70
2018-04-15T06:59:13.735Z,65.60
2018-04-15T07:04:04.633Z,65.70
2018-04-15T07:08:55.526Z,65.80
2018-04-15T07:13:46.409Z,66.00
2018-04-15T07:18:38.047Z,66.20
2018-04-15T07:23:29.688Z,66.40
2018-04-15T07:28:20.582Z,66.40
2018-04-15T07:33:11.469Z,67.10
2018-04-15T07:38:02.769Z,66.50
2018-04-15T07:42:53.794Z,66.70
2018-04-15T07:47:44.685Z,66.60
2018-04-15T07:52:36.329Z,66.90
2018-04-15T07:57:27.952Z,67.00
2018-04-15T08:02:18.992Z,67.00
2018-04-15T08:07:09.913Z,68.00
2018-04-15T08:12:00.813Z,67.40
2018-04-15T08:16:51.692Z,67.50
2018-04-15T08:21:42.567Z,67.40
2018-04-15T08:26:33.505Z,67.60
2018-04-15T08:31:24.457Z,67.70
2018-04-15T08:36:15.402Z,67.50
2018-04-15T08:41:06.338Z,68.20
2018-04-15T08:45:57.225Z,68.20
2018-04-15T08:50:50.149Z,68.70
2018-04-15T08:55:41.046Z,68.60
2018-04-15T09:00:31.935Z,68.60
2018-04-15T09:05:22.826Z,68.60
2018-04-15T09:10:13.803Z,68.40
2018-04-15T09:15:04.960Z,68.20
2018-04-15T09:19:56.617Z,68.70
2018-04-15T09:24:47.499Z,68.10
2018-04-15T09:29:38.461Z,67.90
2018-04-15T09:34:29.344Z,68.10
2018-04-15T09:39:21.025Z,68.00
2018-04-15T09:44:12.160Z,67.90
2018-04-15T09:49:03.043Z,67.60
2018-04-15T09:53:54.695Z,67.60
2018-04-15T09:58:46.400Z,67.90
2018-04-15T10:03:37.276Z,67.70
2018-04-15T10:08:28.164Z,67.10
2018-04-15T10:13:19.268Z,66.10
2018-04-15T10:18:10.173Z,66.10
2018-04-15T10:23:01.051Z,66.10
2018-04-15T10:27:55.213Z,65.50
2018-04-15T10:32:46.305Z,62.70
2018-04-15T10:37:37.957Z,60.10
2018-04-15T10:42:29.584Z,60.00
2018-04-15T10:47:20.492Z,59.80
2018-04-15T10:52:11.424Z,60.50
2018-04-15T10:57:02.383Z,60.50
2018-04-15T11:01:53.324Z,61.40
2018-04-15T11:06:44.217Z,61.20
2018-04-15T11:11:35.114Z,61.80
2018-04-15T11:16:26.007Z,62.00
2018-04-15T11:21:16.915Z,61.00
2018-04-15T11:26:08.536Z,58.70
2018-04-15T11:30:59.438Z,58.70
2018-04-15T11:35:50.344Z,58.50
2018-04-15T11:40:41.992Z,57.10
2018-04-15T11:45:33.610Z,56.80
2018-04-15T11:50:24.519Z,56.70
2018-04-15T11:55:15.419Z,57.10
2018-04-15T12:00:07.070Z,54.50
2018-04-15T12:04:57.966Z,54.40
2018-04-15T12:09:49.764Z,53.60
2018-04-15T12:14:40.703Z,53.50
2018-04-15T12:19:31.597Z,53.40
2018-04-15T12:24:22.567Z,53.20
2018-04-15T12:29:13.448Z,51.80
2018-04-15T12:34:05.072Z,52.20
2018-04-15T12:38:55.990Z,52.10
2018-04-15T12:43:46.881Z,51.40
2018-04-15T12:48:37.774Z,51.60
2018-04-15T12:53:28.653Z,52.20
2018-04-15T12:58:19.542Z,52.90
2018-04-15T13:03:11.178Z,50.00
2018-04-15T13:08:02.108Z,50.00
2018-04-15T13:12:52.996Z,50.30
2018-04-15T13:17:43.893Z,50.40
2018-04-15T13:22:35.534Z,49.50
2018-04-15T13:27:27.181Z,49.40
2018-04-15T13:32:18.859Z,49.50
2018-04-15T13:37:09.735Z,50.10
2018-04-15T13:42:00.629Z,50.90
2018-04-15T13:46:51.521Z,51.10
2018-04-15T13:51:42.496Z,50.70
2018-04-15T13:56:33.424Z,50.60
2018-04-15T14:01:24.308Z,51.20
2018-04-15T14:06:15.207Z,51.10
2018-04-15T14:11:06.116Z,51.10
2018-04-15T14:15:57.038Z,50.90
2018-04-15T14:20:47.934Z,51.20
2018-04-15T14:25:38.834Z,51.70
2018-04-15T14:30:30.455Z,52.10
2018-04-15T14:35:21.351Z,52.00
2018-04-15T14:40:12.352Z,52.60
2018-04-15T14:45:03.253Z,53.00
2018-04-15T14:49:54.977Z,52.90
2018-04-15T14:54:45.883Z,52.80
2018-04-15T14:59:36.784Z,53.40
2018-04-15T15:04:27.664Z,52.40
2018-04-15T15:09:18.593Z,52.80
2018-04-15T15:14:10.283Z,53.10
2018-04-15T15:19:01.183Z,52.90
2018-04-15T15:23:52.068Z,53.50
2018-04-15T15:28:42.947Z,54.50
2018-04-15T15:33:33.841Z,54.30
2018-04-15T15:38:25.564Z,53.30
2018-04-15T15:43:16.457Z,52.60
2018-04-15T15:48:07.339Z,52.40
2018-04-15T15:52:58.968Z,53.00
2018-04-15T15:57:49.852Z,53.00
2018-04-15T16:02:40.735Z,52.80
2018-04-15T16:07:31.650Z,52.60
2018-04-15T16:12:23.289Z,54.00
2018-04-15T16:17:14.929Z,54.50
2018-04-15T16:22:06.551Z,54.80
2018-04-15T16:26:57.438Z,54.70
2018-04-15T16:31:48.329Z,55.10
2018-04-15T16:36:39.339Z,55.40
2018-04-15T16:41:30.215Z,56.10
2018-04-15T16:46:21.091Z,56.30
2018-04-15T16:51:11.990Z,56.60
2018-04-15T16:56:02.999Z,56.70
2018-04-15T17:00:53.914Z,57.10
2018-04-15T17:05:45.543Z,57.40
2018-04-15T17:10:36.495Z,57.30
2018-04-15T17:15:27.371Z,57.60
2018-04-15T17:20:18.247Z,57.70
2018-04-15T17:25:09.158Z,57.80
2018-04-15T17:30:00.059Z,57.80
2018-04-15T17:34:51.705Z,58.00
2018-04-15T17:39:43.423Z,58.10
2018-04-15T17:44:34.224Z,57.90
2018-04-15T17:49:25.109Z,58.00
2018-04-15T17:54:16.237Z,58.10
2018-04-15T17:59:07.138Z,58.70
2018-04-15T18:03:58.040Z,58.20
2018-04-15T18:08:49.687Z,58.30
2018-04-15T18:13:41.330Z,58.30
2018-04-15T18:18:32.980Z,58.30
2018-04-15T18:23:24.715Z,58.40
2018-04-15T18:28:15.635Z,58.40
2018-04-15T18:33:06.472Z,58.50
2018-04-15T18:37:57.376Z,58.40
2018-04-15T18:42:48.298Z,58.70
2018-04-15T18:47:39.188Z,58.60
2018-04-15T18:52:30.096Z,58.90
2018-04-15T18:57:21.058Z,58.80
2018-04-15T19:02:12.041Z,59.10
2018-04-15T19:07:02.891Z,59.20
2018-04-15T19:11:53.830Z,59.10
2018-04-15T19:16:44.722Z,59.20
2018-04-15T19:21:35.672Z,59.30
2018-04-15T19:26:26.602Z,59.50
2018-04-15T19:31:17.654Z,59.50
2018-04-15T19:36:08.578Z,59.70
2018-04-15T19:40:59.542Z,59.70
2018-04-15T19:45:51.257Z,59.80
2018-04-15T19:50:42.182Z,59.90
2018-04-15T19:55:33.112Z,59.80
2018-04-15T20:00:30.924Z,59.80
2018-04-15T20:05:21.822Z,59.90
2018-04-15T20:10:12.723Z,59.90
2018-04-15T20:15:03.633Z,59.80
2018-04-15T20:19:54.515Z,59.90
2018-04-15T20:24:45.399Z,59.70
2018-04-15T20:29:36.297Z,59.80
2018-04-15T20:34:27.955Z,59.90
2018-04-15T20:39:18.849Z,59.90
2018-04-15T20:44:09.857Z,59.90
2018-04-15T20:49:00.731Z,60.00
2018-04-15T20:53:51.622Z,60.00
2018-04-15T20:58:43.247Z,60.00
2018-04-15T21:03:34.127Z,60.00
2018-04-15T21:08:25.008Z,60.70
2018-04-15T21:13:16.650Z,60.00
2018-04-15T21:18:07.532Z,60.00
2018-04-15T21:22:58.415Z,60.00
2018-04-15T21:27:49.310Z,60.10
2018-04-15T21:32:40.202Z,60.10
2018-04-15T21:37:31.098Z,60.10
2018-04-15T21:42:21.994Z,60.20
2018-04-15T21:47:12.904Z,60.20
2018-04-15T21:52:04.524Z,60.30
2018-04-15T21:56:55.414Z,60.20
2018-04-15T22:01:46.310Z,60.20
2018-04-15T22:06:37.195Z,60.20
2018-04-15T22:11:40.502Z,60.10
2018-04-15T22:16:31.452Z,60.30
2018-04-15T22:21:22.395Z,60.30
2018-04-15T22:26:14.133Z,60.30
2018-04-15T22:31:05.011Z,60.20
2018-04-15T22:35:55.896Z,60.30
2018-04-15T22:40:47.533Z,60.40
2018-04-15T22:45:38.422Z,60.30
2018-04-15T22:50:35.483Z,60.40
2018-04-15T22:55:26.355Z,60.60
2018-04-15T23:00:17.258Z,60.40
2018-04-15T23:05:08.159Z,60.40
2018-04-15T23:09:59.048Z,60.40
2018-04-15T23:14:49.949Z,60.50
2018-04-15T23:19:40.842Z,60.60
2018-04-15T23:24:31.721Z,60.50
2018-04-15T23:29:23.339Z,60.60
2018-04-15T23:34:14.226Z,60.60
2018-04-15T23:39:05.133Z,60.50
2018-04-15T23:43:56.767Z,60.60
2018-04-15T23:48:47.675Z,60.50
2018-04-15T23:53:39.351Z,60.60
2018-04-15T23:58:30.972Z,60.70
